Time;durP1;ratioP1;P1;durP2;ratioP2;P2;SDS_P1;SDS_P2;PMS_P1;PMS_P2;Temp;Humidity;BMP_temperature;BMP_pressure;BME280_temperature;BME280_humidity;BME280_pressure;Samples;Min_cycle;Max_cycle;Signal;HPM_P1;HPM_P2
2022/03/29 00:00:38;;;;;;;16.77;10.10;;;;;;;8.17;64.02;96708.91;5117001;28;20062;-63
2022/03/29 00:03:04;;;;;;;18.58;9.88;;;;;;;8.09;64.47;96707.34;5116929;28;20484;-63
2022/03/29 00:05:30;;;;;;;14.48;9.48;;;;;;;8.09;64.77;96703.88;5116943;28;20151;-63
2022/03/29 00:07:55;;;;;;;15.52;9.38;;;;;;;8.08;65.01;96704.78;5116805;28;20481;-63
2022/03/29 00:10:21;;;;;;;14.10;9.27;;;;;;;8.01;65.07;96700.63;5116822;28;20024;-63
2022/03/29 00:12:47;;;;;;;14.63;8.80;;;;;;;7.95;65.20;96701.66;5116849;28;20016;-63
2022/03/29 00:15:12;;;;;;;15.35;9.80;;;;;;;7.93;65.03;96693.88;5116864;28;20381;-63
2022/03/29 00:17:38;;;;;;;17.48;9.70;;;;;;;7.88;65.33;96681.81;5116746;28;20106;-63
2022/03/29 00:20:04;;;;;;;18.02;9.70;;;;;;;7.77;65.53;96682.13;5116500;28;20397;-63
2022/03/29 00:22:30;;;;;;;14.07;8.85;;;;;;;7.77;65.19;96680.34;5116682;28;20035;-63
2022/03/29 00:24:55;;;;;;;13.18;8.52;;;;;;;7.80;65.02;96676.84;5116599;28;20015;-63
2022/03/29 00:27:21;;;;;;;13.02;8.80;;;;;;;7.79;65.30;96667.28;5116484;28;20035;-63
2022/03/29 00:29:47;;;;;;;15.93;8.40;;;;;;;7.78;65.39;96661.25;5116563;28;20023;-63
2022/03/29 00:32:13;;;;;;;15.55;8.48;;;;;;;7.81;65.55;96663.78;5116367;28;20108;-63
2022/03/29 00:34:40;;;;;;;20.52;9.63;;;;;;;7.79;65.71;96651.66;5116314;28;20047;-63
2022/03/29 00:37:06;;;;;;;14.55;9.02;;;;;;;7.80;65.00;96649.03;5116329;28;20039;-63
2022/03/29 00:39:32;;;;;;;17.58;9.13;;;;;;;7.79;65.02;96647.31;5116224;28;20023;-63
2022/03/29 00:41:59;;;;;;;15.77;8.98;;;;;;;7.84;65.08;96649.81;5115400;27;20051;-63
2022/03/29 00:44:33;;;;;;;15.70;9.13;;;;;;;7.70;64.84;96645.81;5116175;27;20035;-63
2022/03/29 00:47:00;;;;;;;15.10;9.10;;;;;;;7.50;65.95;96643.69;5116108;28;20023;-63
2022/03/29 00:49:27;;;;;;;18.85;9.85;;;;;;;7.37;66.27;96643.13;5116003;28;20469;-63
2022/03/29 00:51:58;;;;;;;16.95;9.43;;;;;;;7.46;66.29;96637.69;5116040;28;20035;-63
2022/03/29 00:54:28;;;;;;;20.05;9.55;;;;;;;7.43;66.81;96639.50;5115961;28;20042;-63
2022/03/29 00:56:57;;;;;;;16.15;10.13;;;;;;;7.45;66.11;96645.53;5115871;28;20019;-63
2022/03/29 00:59:25;;;;;;;15.45;8.90;;;;;;;7.41;65.96;96639.53;5115819;28;20027;-63
2022/03/29 01:01:51;;;;;;;15.35;9.68;;;;;;;7.27;66.17;96633.81;5115787;28;20111;-63
2022/03/29 01:04:17;;;;;;;18.90;10.10;;;;;;;7.24;66.33;96626.94;5115716;28;20096;-63
2022/03/29 01:06:43;;;;;;;15.80;9.30;;;;;;;7.14;66.56;96612.44;5115800;28;20051;-63
2022/03/29 01:09:11;;;;;;;13.45;9.15;;;;;;;7.07;66.91;96612.56;5115716;28;20059;-63
2022/03/29 01:11:38;;;;;;;18.35;9.20;;;;;;;7.06;67.02;96605.66;5115728;28;20019;-63
2022/03/29 01:14:04;;;;;;;15.05;8.73;;;;;;;7.05;66.60;96611.75;5115607;28;20027;-62
2022/03/29 01:19:20;;;;;;;23.35;9.75;;;;;;;7.10;67.08;96613.41;5115869;28;20526;-63
2022/03/29 01:21:56;;;;;;;13.85;9.10;;;;;;;7.16;67.15;96608.03;5115445;28;20027;-63
2022/03/29 01:24:23;;;;;;;15.93;9.23;;;;;;;7.22;67.30;96614.88;5115500;28;20496;-63
2022/03/29 01:26:50;;;;;;;25.05;10.32;;;;;;;7.26;66.82;96603.50;5115418;28;20024;-63
2022/03/29 01:29:16;;;;;;;18.83;9.95;;;;;;;7.18;66.75;96603.66;5115306;28;20046;-63
2022/03/29 01:31:42;;;;;;;16.55;8.95;;;;;;;7.13;67.42;96605.53;5115305;28;20525;-63
2022/03/29 01:34:07;;;;;;;11.73;9.43;;;;;;;7.10;67.27;96583.03;5115116;28;20011;-63
2022/03/29 01:36:33;;;;;;;14.40;8.68;;;;;;;7.07;67.10;96588.28;5115142;28;20024;-63
2022/03/29 01:38:59;;;;;;;13.88;8.55;;;;;;;7.06;67.24;96586.59;5115078;28;20027;-63
2022/03/29 01:41:27;;;;;;;13.30;8.65;;;;;;;6.96;67.45;96580.75;5114755;28;20044;-63
2022/03/29 01:43:53;;;;;;;16.00;8.60;;;;;;;6.97;67.63;96576.41;5115080;28;20020;-63
2022/03/29 01:46:18;;;;;;;12.82;7.93;;;;;;;6.99;67.81;96575.50;5115011;28;20030;-63
2022/03/29 01:48:44;;;;;;;12.07;8.43;;;;;;;6.95;67.69;96572.09;5114956;28;20512;-63
2022/03/29 01:51:12;;;;;;;14.65;8.00;;;;;;;6.97;67.96;96573.78;5114916;28;20023;-63
2022/03/29 01:53:38;;;;;;;14.35;9.60;;;;;;;6.91;68.14;96560.06;5114000;28;20024;-63
2022/03/29 01:56:04;;;;;;;13.00;8.65;;;;;;;6.91;68.34;96557.47;5114730;28;20027;-63
2022/03/29 01:58:30;;;;;;;12.52;8.23;;;;;;;6.93;68.37;96558.25;5114695;28;20374;-63
2022/03/29 02:00:55;;;;;;;12.55;8.57;;;;;;;6.82;68.65;96552.47;5114698;28;20051;-63
2022/03/29 02:03:21;;;;;;;15.10;10.27;;;;;;;6.82;69.49;96560.25;5114668;28;20462;-63
2022/03/29 02:05:47;;;;;;;15.35;9.23;;;;;;;6.86;70.00;96554.09;5114586;28;20020;-63
2022/03/29 02:08:13;;;;;;;17.15;9.32;;;;;;;6.92;69.84;96545.28;5114499;28;20092;-63
2022/03/29 02:10:38;;;;;;;15.60;9.77;;;;;;;6.98;69.31;96547.75;5113165;28;20020;-63
2022/03/29 02:13:04;;;;;;;13.27;8.85;;;;;;;7.08;69.21;96548.41;5114391;28;20477;-63
2022/03/29 02:15:30;;;;;;;19.90;9.82;;;;;;;7.11;69.35;96544.88;5114412;28;20031;-63
2022/03/29 02:17:56;;;;;;;17.00;10.23;;;;;;;7.16;69.05;96540.38;5114369;28;20081;-63
2022/03/29 02:20:23;;;;;;;16.45;10.57;;;;;;;7.23;68.78;96543.72;5114303;28;20035;-63
2022/03/29 02:22:49;;;;;;;14.15;9.18;;;;;;;7.28;68.44;96537.50;5114335;28;20507;-63
2022/03/29 02:25:15;;;;;;;12.15;9.10;;;;;;;7.28;68.67;96537.50;5114216;28;20019;-63
2022/03/29 02:27:42;;;;;;;17.45;9.55;;;;;;;7.32;68.70;96543.50;5114212;28;20020;-64
2022/03/29 02:30:10;;;;;;;15.65;9.50;;;;;;;7.33;68.44;96540.00;5114146;28;20095;-63
2022/03/29 02:32:36;;;;;;;18.55;9.60;;;;;;;7.36;68.18;96536.44;5114077;28;20016;-63
2022/03/29 02:35:02;;;;;;;15.55;9.27;;;;;;;7.41;68.14;96537.19;5114009;28;20018;-63
2022/03/29 02:37:28;;;;;;;22.55;10.43;;;;;;;7.40;67.96;96540.69;5114150;28;20473;-63
2022/03/29 02:39:53;;;;;;;14.68;9.68;;;;;;;7.45;68.33;96536.22;5113964;28;20030;-63
2022/03/29 02:42:19;;;;;;;18.48;9.27;;;;;;;7.39;68.26;96538.97;5113651;28;20108;-63
2022/03/29 02:44:44;;;;;;;23.38;9.77;;;;;;;7.37;68.13;96536.41;5112604;28;20030;-63
2022/03/29 02:47:10;;;;;;;16.90;9.60;;;;;;;7.36;68.20;96526.91;5113804;28;20027;-63
2022/03/29 02:49:36;;;;;;;14.30;8.85;;;;;;;7.36;68.20;96528.63;5113802;28;20024;-63
2022/03/29 02:52:02;;;;;;;12.55;8.65;;;;;;;7.32;68.25;96522.69;5113835;28;20552;-63
2022/03/29 02:54:28;;;;;;;14.07;8.15;;;;;;;7.37;68.16;96538.19;5113708;28;20027;-63
2022/03/29 02:56:54;;;;;;;13.88;8.25;;;;;;;7.34;67.65;96531.28;5113623;28;20357;-63
2022/03/29 02:59:20;;;;;;;13.40;8.43;;;;;;;7.26;67.91;96522.81;5113645;28;20019;-63
2022/03/29 03:01:45;;;;;;;15.32;8.82;;;;;;;7.19;68.29;96529.91;5113729;28;20034;-63
2022/03/29 03:04:13;;;;;;;14.18;8.00;;;;;;;7.19;68.84;96527.31;5113548;28;20016;-63
2022/03/29 03:06:42;;;;;;;16.98;9.30;;;;;;;7.16;68.41;96524.78;5113540;28;20028;-63
2022/03/29 03:09:08;;;;;;;23.52;10.32;;;;;;;7.15;68.57;96513.53;5113513;28;20027;-63
2022/03/29 03:11:35;;;;;;;17.25;9.73;;;;;;;7.11;68.40;96518.84;5113616;28;20016;-63
2022/03/29 03:14:01;;;;;;;16.02;8.80;;;;;;;7.10;68.76;96517.16;5113680;28;20031;-63
2022/03/29 03:16:26;;;;;;;11.82;8.93;;;;;;;7.02;68.83;96520.81;5113616;28;20018;-63
2022/03/29 03:18:52;;;;;;;12.75;8.27;;;;;;;6.97;69.00;96508.78;5113426;28;20107;-63
2022/03/29 03:21:17;;;;;;;12.57;8.82;;;;;;;6.92;69.09;96512.34;5113171;28;20028;-63
2022/03/29 03:23:43;;;;;;;17.38;9.13;;;;;;;6.90;69.37;96510.69;5113466;28;20111;-63
2022/03/29 03:26:09;;;;;;;14.70;9.00;;;;;;;6.89;69.41;96509.81;5113367;28;20122;-63
2022/03/29 03:28:34;;;;;;;17.50;8.73;;;;;;;6.91;69.07;96514.97;5113543;28;20020;-63
2022/03/29 03:31:00;;;;;;;13.55;9.38;;;;;;;6.89;69.25;96509.81;5113466;28;20373;-64
2022/03/29 03:33:26;;;;;;;16.75;9.80;;;;;;;6.88;69.34;96505.50;5113320;28;20052;-64
2022/03/29 03:35:51;;;;;;;14.15;9.65;;;;;;;6.87;69.40;96514.22;5113349;28;20414;-64
2022/03/29 03:38:17;;;;;;;14.20;9.50;;;;;;;6.81;70.09;96517.78;5113295;28;20027;-63
2022/03/29 03:40:43;;;;;;;16.83;9.15;;;;;;;6.87;69.62;96514.22;5112919;28;20119;-63
2022/03/29 03:43:08;;;;;;;19.77;9.32;;;;;;;6.84;69.31;96509.09;5113293;28;20378;-64
2022/03/29 03:45:34;;;;;;;16.83;9.25;;;;;;;6.86;69.06;96511.66;5113360;28;20050;-64
2022/03/29 03:48:00;;;;;;;14.02;8.93;;;;;;;6.87;68.99;96509.00;5113358;28;20027;-64
2022/03/29 03:50:26;;;;;;;13.43;8.85;;;;;;;6.78;68.94;96515.28;5113228;28;20434;-64
2022/03/29 03:52:53;;;;;;;16.50;9.18;;;;;;;6.72;69.16;96515.44;5113186;28;20031;-64
2022/03/29 03:55:20;;;;;;;14.93;8.75;;;;;;;6.74;68.94;96512.78;5113079;28;20382;-64
2022/03/29 03:57:45;;;;;;;13.00;8.88;;;;;;;6.76;68.96;96516.19;5113064;28;20031;-64
2022/03/29 04:00:11;;;;;;;15.95;8.07;;;;;;;6.73;68.97;96518.84;5111744;28;20024;-64
2022/03/29 04:02:38;;;;;;;14.38;8.25;;;;;;;6.71;68.79;96521.50;5113120;28;20027;-64
2022/03/29 04:05:05;;;;;;;13.23;9.32;;;;;;;6.69;68.80;96513.72;5113008;28;20030;-63
2022/03/29 04:07:31;;;;;;;12.07;8.35;;;;;;;6.69;68.59;96520.69;5112968;28;20026;-63
2022/03/29 04:09:56;;;;;;;20.83;9.45;;;;;;;6.60;68.79;96516.56;5112979;28;20023;-64
2022/03/29 04:12:22;;;;;;;15.45;10.32;;;;;;;6.54;68.55;96520.13;5112999;28;20042;-64
2022/03/29 04:14:47;;;;;;;14.23;10.00;;;;;;;6.49;68.29;96510.72;5112995;28;20187;-64
2022/03/29 04:17:14;;;;;;;16.23;10.45;;;;;;;6.41;68.19;96516.94;5114771;28;20024;-63
2022/03/29 04:19:39;;;;;;;17.10;10.35;;;;;;;6.34;68.67;96507.59;5116733;28;20030;-64
2022/03/29 04:22:05;;;;;;;17.90;10.25;;;;;;;6.11;69.38;96505.47;5116527;28;20016;-63
2022/03/29 04:24:31;;;;;;;16.77;10.15;;;;;;;6.06;69.56;96503.81;5116654;28;20020;-63
2022/03/29 04:26:57;;;;;;;20.73;10.10;;;;;;;6.04;69.03;96497.81;5116509;28;20480;-63
2022/03/29 04:29:23;;;;;;;15.95;9.77;;;;;;;6.05;68.70;96499.50;5116493;28;20389;-63
2022/03/29 04:31:49;;;;;;;16.20;9.70;;;;;;;6.00;69.44;96500.47;5116373;28;20047;-63
2022/03/29 04:34:15;;;;;;;16.15;10.27;;;;;;;5.99;70.43;96501.38;5116309;28;20473;-64
2022/03/29 04:36:41;;;;;;;21.50;10.73;;;;;;;5.91;70.51;96497.19;5116473;28;20030;-63
2022/03/29 04:39:06;;;;;;;16.55;10.65;;;;;;;5.93;71.20;96499.75;5116404;28;20068;-63
2022/03/29 04:41:32;;;;;;;17.73;9.93;;;;;;;6.02;70.62;96502.13;5115989;28;20047;-64
2022/03/29 04:43:58;;;;;;;20.05;10.63;;;;;;;6.18;69.37;96494.06;5116210;28;20053;-64
2022/03/29 04:46:24;;;;;;;16.17;9.85;;;;;;;6.22;68.59;96498.31;5116210;28;20031;-64
2022/03/29 04:48:52;;;;;;;15.65;10.82;;;;;;;6.32;68.54;96504.16;5116190;28;20149;-64
2022/03/29 04:51:18;;;;;;;19.25;10.32;;;;;;;6.50;68.44;96507.25;5115989;28;20027;-64
2022/03/29 04:53:44;;;;;;;14.95;9.20;;;;;;;6.68;67.57;96496.44;5116105;28;20108;-64
2022/03/29 04:56:10;;;;;;;12.98;9.00;;;;;;;6.98;66.74;96507.91;5115995;28;20065;-64
2022/03/29 04:58:36;;;;;;;17.60;9.77;;;;;;;7.24;66.15;96502.03;5115952;28;20380;-63
2022/03/29 05:01:01;;;;;;;17.58;9.63;;;;;;;7.57;65.54;96506.41;5115848;28;20034;-64
2022/03/29 05:03:27;;;;;;;17.48;9.95;;;;;;;7.92;64.48;96503.75;5115818;28;20024;-63
2022/03/29 05:05:54;;;;;;;16.52;9.23;;;;;;;8.24;63.36;96504.56;5115840;28;20056;-63
2022/03/29 05:08:20;;;;;;;16.58;8.18;;;;;;;8.50;62.21;96508.16;5115693;28;20027;-63
2022/03/29 05:10:45;;;;;;;13.88;8.30;;;;;;;8.81;61.56;96509.84;5115941;28;20015;-63
2022/03/29 05:13:12;;;;;;;17.63;8.32;;;;;;;9.11;60.12;96506.31;5115719;28;20031;-63
2022/03/29 05:15:37;;;;;;;10.85;7.78;;;;;;;9.53;60.04;96504.94;5115728;28;20023;-64
2022/03/29 05:18:03;;;;;;;13.95;8.23;;;;;;;9.86;59.00;96509.03;5115580;27;20027;-64
2022/03/29 05:20:29;;;;;;;14.07;9.10;;;;;;;10.30;57.73;96505.66;5115394;28;20019;-63
2022/03/29 05:22:55;;;;;;;16.98;9.50;;;;;;;10.72;56.45;96513.75;5115583;28;20027;-64
2022/03/29 05:25:23;;;;;;;16.67;8.35;;;;;;;11.14;55.51;96513.88;5115436;28;20020;-64
2022/03/29 05:27:51;;;;;;;13.50;9.15;;;;;;;11.52;55.05;96506.16;5114416;28;20048;-64
2022/03/29 05:30:17;;;;;;;14.30;8.85;;;;;;;11.91;53.53;96503.66;5115156;28;20026;-64
2022/03/29 05:32:43;;;;;;;13.88;9.52;;;;;;;12.34;52.82;96507.00;5115192;28;20049;-64
2022/03/29 05:35:10;;;;;;;14.38;9.13;;;;;;;12.80;52.08;96512.81;5115206;28;20016;-62
2022/03/29 05:37:37;;;;;;;14.45;8.85;;;;;;;13.35;51.86;96508.44;5115160;28;20043;-64
2022/03/29 05:40:04;;;;;;;15.68;9.60;;;;;;;13.86;50.02;96505.91;5115143;28;20024;-64
2022/03/29 05:42:30;;;;;;;17.90;9.45;;;;;;;14.26;50.30;96504.72;5114755;28;20063;-64
2022/03/29 05:44:56;;;;;;;19.98;9.02;;;;;;;14.80;49.41;96502.75;5115027;28;20023;-64
2022/03/29 05:50:06;;;;;;;13.77;7.63;;;;;;;15.64;46.87;96498.84;5114986;28;20030;-64
2022/03/29 05:52:32;;;;;;;12.00;8.23;;;;;;;16.01;45.52;96501.09;5114847;28;20496;-64
2022/03/29 05:54:57;;;;;;;12.20;8.18;;;;;;;16.39;44.10;96498.81;5114709;28;20016;-64
2022/03/29 05:57:23;;;;;;;19.63;8.32;;;;;;;16.68;43.84;96491.69;5114854;27;20354;-64
2022/03/29 05:59:49;;;;;;;19.45;8.95;;;;;;;17.11;42.68;96492.56;5114793;28;20080;-64
2022/03/29 06:02:14;;;;;;;12.15;8.52;;;;;;;17.50;41.41;96492.66;5114636;28;20028;-64
2022/03/29 06:04:40;;;;;;;16.70;9.50;;;;;;;17.83;40.97;96490.47;5114607;28;20051;-64
2022/03/29 06:07:06;;;;;;;19.77;9.77;;;;;;;18.10;40.17;96496.63;5114462;28;20024;-64
2022/03/29 06:09:35;;;;;;;20.88;9.13;;;;;;;18.21;39.64;96493.25;5114496;27;20027;-64
2022/03/29 06:12:03;;;;;;;19.23;8.75;;;;;;;18.51;39.73;96494.72;5114344;27;20471;-64
2022/03/29 06:14:28;;;;;;;14.27;8.85;;;;;;;18.42;39.37;96497.03;5114505;28;20061;-64
2022/03/29 06:16:55;;;;;;;13.45;9.27;;;;;;;18.20;39.72;96495.06;5114400;28;20096;-63
2022/03/29 06:19:21;;;;;;;16.27;9.82;;;;;;;18.35;39.27;96493.13;5114294;28;20027;-64
2022/03/29 06:21:46;;;;;;;15.13;9.93;;;;;;;18.58;38.87;96498.59;5114204;28;20026;-64
2022/03/29 06:24:12;;;;;;;19.10;10.43;;;;;;;18.72;39.15;96494.94;5114238;28;20024;-64
2022/03/29 06:26:39;;;;;;;23.13;10.23;;;;;;;18.77;38.52;96497.28;5114182;28;20382;-64
2022/03/29 06:29:09;;;;;;;20.02;10.50;;;;;;;18.65;38.79;96491.91;5114009;28;20059;-64
2022/03/29 06:31:35;;;;;;;18.45;9.82;;;;;;;18.45;39.15;96493.31;5114062;28;20020;-64
2022/03/29 06:34:02;;;;;;;20.50;9.77;;;;;;;18.54;39.50;96484.72;5114069;28;20038;-64
2022/03/29 06:36:28;;;;;;;13.25;10.70;;;;;;;18.68;38.49;96494.34;5113830;28;20035;-64
2022/03/29 06:38:53;;;;;;;24.58;10.80;;;;;;;18.36;39.49;96481.56;5113879;28;20370;-64
2022/03/29 06:41:19;;;;;;;22.58;11.25;;;;;;;18.78;38.34;96483.91;5113555;28;20115;-64
2022/03/29 06:43:47;;;;;;;14.52;9.93;;;;;;;19.25;37.52;96483.22;5113923;28;20023;-64
2022/03/29 06:46:12;;;;;;;23.60;10.05;;;;;;;19.61;36.90;96483.22;5113891;28;20039;-64
2022/03/29 06:48:44;;;;;;;16.83;9.00;;;;;;;19.85;36.08;96477.00;5113890;28;20019;-64
2022/03/29 06:51:12;;;;;;;14.00;9.02;;;;;;;19.99;36.01;96472.44;5113929;28;20032;-65
2022/03/29 06:53:39;;;;;;;16.50;9.80;;;;;;;20.13;34.62;96471.38;5113785;28;20023;-64
2022/03/29 06:56:07;;;;;;;11.05;8.70;;;;;;;20.30;34.67;96473.59;5113636;28;20016;-64
2022/03/29 06:58:34;;;;;;;15.55;8.82;;;;;;;20.49;34.48;96469.47;5113669;28;20019;-65
2022/03/29 07:00:59;;;;;;;14.27;8.95;;;;;;;20.01;34.99;96465.22;5113636;28;20063;-64
2022/03/29 07:03:25;;;;;;;16.25;10.23;;;;;;;19.82;36.47;96466.63;5113762;28;20024;-64
2022/03/29 07:05:50;;;;;;;14.98;9.82;;;;;;;19.72;35.50;96466.50;5113601;28;20508;-64
2022/03/29 07:08:18;;;;;;;15.10;9.90;;;;;;;19.73;36.76;96464.69;5113572;28;20016;-64
2022/03/29 07:13:28;;;;;;;17.42;10.43;;;;;;;19.58;36.27;96467.53;5113652;28;20034;-65
2022/03/29 07:15:54;;;;;;;15.10;9.45;;;;;;;19.58;37.69;96470.19;5113531;28;20056;-65
2022/03/29 07:18:19;;;;;;;14.70;9.38;;;;;;;19.60;36.71;96473.59;5113516;28;20047;-64
2022/03/29 07:20:45;;;;;;;18.55;9.48;;;;;;;19.77;35.82;96466.97;5113373;28;20077;-65
2022/03/29 07:23:12;;;;;;;12.65;8.85;;;;;;;19.53;36.67;96464.38;5113423;28;20027;-65
2022/03/29 07:25:37;;;;;;;15.52;10.18;;;;;;;19.66;36.47;96456.34;5113369;28;20056;-65
2022/03/29 07:28:04;;;;;;;12.60;8.75;;;;;;;20.02;35.73;96464.28;5113369;28;20016;-65
2022/03/29 07:30:33;;;;;;;15.57;9.40;;;;;;;19.91;35.52;96468.59;5113404;28;20470;-65
2022/03/29 07:32:59;;;;;;;18.88;8.98;;;;;;;19.52;35.52;96457.41;5113339;28;20035;-64
2022/03/29 07:35:28;;;;;;;13.57;8.25;;;;;;;19.65;35.90;96463.47;5113529;28;20012;-65
2022/03/29 07:37:55;;;;;;;19.65;9.73;;;;;;;19.85;35.87;96454.94;5113231;28;20481;-65
2022/03/29 07:40:24;;;;;;;12.25;9.13;;;;;;;19.86;36.96;96459.28;5112983;28;20024;-65
2022/03/29 07:42:50;;;;;;;22.17;9.48;;;;;;;19.83;36.22;96447.09;5113293;28;20392;-65
2022/03/29 07:45:17;;;;;;;16.95;9.07;;;;;;;19.86;35.72;96446.84;5113152;28;20026;-65
2022/03/29 07:47:44;;;;;;;14.63;8.68;;;;;;;19.85;35.38;96446.97;5113222;28;20385;-65
2022/03/29 07:50:11;;;;;;;14.25;8.68;;;;;;;19.81;35.12;96436.59;5113190;28;20537;-65
2022/03/29 07:52:39;;;;;;;18.65;8.75;;;;;;;20.26;35.05;96434.13;5115867;28;20023;-65
2022/03/29 07:55:06;;;;;;;19.77;9.05;;;;;;;20.20;35.25;96435.44;5117183;28;20032;-65
2022/03/29 07:57:33;;;;;;;16.73;9.75;;;;;;;19.98;35.40;96430.94;5117159;28;20572;-65
2022/03/29 08:00:31;;;;;;;17.38;8.57;;;;;;;20.08;35.24;96430.13;5117064;28;20050;-65
2022/03/29 08:02:46;;;;;;;14.52;9.55;;;;;;;20.10;34.30;96421.22;5116992;28;20027;-65
2022/03/29 08:05:11;;;;;;;17.77;8.60;;;;;;;19.92;35.86;96425.16;5116903;27;20465;-65
2022/03/29 08:07:37;;;;;;;13.25;8.65;;;;;;;19.73;34.86;96416.91;5116860;28;20045;-65
2022/03/29 08:10:03;;;;;;;32.45;8.60;;;;;;;19.43;35.35;96416.50;5116883;28;20231;-65
2022/03/29 08:12:29;;;;;;;18.15;8.32;;;;;;;19.70;32.93;96412.69;5116965;28;20011;-65
2022/03/29 08:14:55;;;;;;;11.85;7.65;;;;;;;19.51;33.55;96414.09;5116748;28;20104;-65
2022/03/29 08:17:20;;;;;;;11.15;7.32;;;;;;;19.36;33.54;96413.50;5116684;28;20054;-65
2022/03/29 08:19:46;;;;;;;16.42;7.15;;;;;;;19.38;34.31;96411.56;5116703;28;20035;-65
2022/03/29 08:22:11;;;;;;;12.93;7.18;;;;;;;19.34;33.84;96419.84;5116758;28;20019;-65
2022/03/29 08:24:37;;;;;;;18.90;7.75;;;;;;;19.29;33.25;96413.09;5116711;28;20016;-65
2022/03/29 08:27:03;;;;;;;11.02;7.20;;;;;;;19.11;33.78;96411.84;5116694;28;20016;-65
2022/03/29 08:29:28;;;;;;;12.38;7.85;;;;;;;18.85;34.85;96414.59;5116433;28;20024;-65
2022/03/29 08:31:54;;;;;;;14.50;7.47;;;;;;;18.93;33.73;96410.41;5116448;28;20051;-64
2022/03/29 08:34:21;;;;;;;13.00;6.85;;;;;;;18.89;34.04;96401.00;5116375;28;20035;-65
2022/03/29 08:36:49;;;;;;;10.10;7.15;;;;;;;18.67;34.52;96407.03;5116418;28;20047;-65
2022/03/29 08:39:15;;;;;;;12.75;6.88;;;;;;;18.47;34.18;96400.53;5116242;28;20556;-65
2022/03/29 08:41:53;;;;;;;10.95;7.05;;;;;;;18.36;33.74;96393.38;5116107;28;20043;-65
2022/03/29 08:44:19;;;;;;;12.15;6.65;;;;;;;18.28;34.13;96393.94;5116263;28;20030;-65
2022/03/29 08:46:46;;;;;;;10.05;6.88;;;;;;;18.05;33.98;96386.66;5116085;27;20031;-65
2022/03/29 08:49:14;;;;;;;9.30;6.90;;;;;;;18.07;34.03;96383.88;5116090;28;20055;-65
2022/03/29 08:51:40;;;;;;;8.80;6.40;;;;;;;18.16;33.91;96387.72;5116166;28;20377;-65
2022/03/29 08:54:06;;;;;;;9.63;6.80;;;;;;;18.30;34.60;96384.91;5116111;28;20016;-64
2022/03/29 08:56:33;;;;;;;10.23;7.03;;;;;;;18.22;33.53;96383.78;5116060;28;20023;-64
2022/03/29 08:58:59;;;;;;;12.25;6.30;;;;;;;18.17;33.75;96379.66;5115950;28;20024;-64
2022/03/29 09:01:25;;;;;;;14.85;6.57;;;;;;;18.39;34.86;96371.97;5115802;28;20052;-64
2022/03/29 09:04:08;;;;;;;11.93;6.18;;;;;;;18.22;33.13;96381.13;5115547;28;20441;-64
2022/03/29 09:06:54;;;;;;;8.30;6.07;;;;;;;18.15;33.12;96372.78;5115914;28;20027;-64
2022/03/29 09:09:30;;;;;;;10.02;6.97;;;;;;;18.22;33.61;96373.19;5115931;28;20173;-64
2022/03/29 09:11:58;;;;;;;12.13;6.47;;;;;;;18.30;33.03;96363.72;5115841;28;20461;-64
2022/03/29 09:14:28;;;;;;;10.07;6.40;;;;;;;18.35;34.01;96362.53;5115778;28;20035;-64
2022/03/29 09:16:55;;;;;;;12.70;7.10;;;;;;;18.49;32.29;96365.06;5115750;28;20039;-64
2022/03/29 09:19:25;;;;;;;11.05;6.85;;;;;;;18.54;32.84;96354.97;5115579;27;20051;-65
2022/03/29 09:21:59;;;;;;;10.35;6.15;;;;;;;18.65;33.75;96354.16;5115501;28;20020;-65
2022/03/29 09:24:25;;;;;;;8.90;5.90;;;;;;;19.06;33.83;96343.25;5115413;28;20366;-64
2022/03/29 09:26:54;;;;;;;11.80;5.90;;;;;;;19.27;31.93;96346.06;5115420;28;20026;-64
2022/03/29 09:29:24;;;;;;;8.73;6.38;;;;;;;19.25;32.53;96331.25;5115430;28;20076;-64
2022/03/29 09:32:06;;;;;;;12.57;6.40;;;;;;;19.31;31.76;96341.41;5115365;28;20099;-64
2022/03/29 09:34:33;;;;;;;10.05;6.13;;;;;;;19.16;32.50;96331.00;5115334;28;20120;-64
2022/03/29 09:37:01;;;;;;;9.10;5.78;;;;;;;19.39;32.11;96332.84;5115131;28;20051;-64
2022/03/29 09:39:32;;;;;;;11.35;5.70;;;;;;;19.54;30.91;96328.16;5115137;28;20026;-65
2022/03/29 09:42:00;;;;;;;7.47;5.65;;;;;;;19.24;31.21;96325.13;5114871;28;20051;-64
2022/03/29 09:44:37;;;;;;;10.60;5.90;;;;;;;19.11;31.71;96322.56;5115040;28;20023;-64
2022/03/29 09:47:07;;;;;;;19.00;6.57;;;;;;;19.31;31.29;96320.19;5115216;28;20456;-64
2022/03/29 09:49:53;;;;;;;9.68;5.55;;;;;;;19.47;31.17;96309.22;5114920;28;20532;-64
2022/03/29 09:52:21;;;;;;;12.15;5.95;;;;;;;19.58;29.66;96303.09;5114780;28;20169;-64
2022/03/29 09:55:13;;;;;;;15.20;4.70;;;;;;;19.77;28.74;96304.28;5114872;28;20047;-64
2022/03/29 09:57:44;;;;;;;9.10;5.43;;;;;;;20.05;29.49;96296.81;5114968;28;20030;-64
2022/03/29 10:00:32;;;;;;;7.82;5.40;;;;;;;20.13;28.34;96291.72;5114917;28;20031;-65
2022/03/29 10:02:58;;;;;;;8.90;5.05;;;;;;;20.04;29.55;96297.75;5114721;28;20024;-64
2022/03/29 10:05:26;;;;;;;8.25;5.53;;;;;;;20.28;28.50;96289.63;5114665;28;20055;-65
2022/03/29 10:10:50;;;;;;;8.50;5.10;;;;;;;20.55;27.92;96272.38;5114921;28;20042;-64
2022/03/29 10:13:17;;;;;;;12.95;4.85;;;;;;;20.63;28.30;96273.56;5114560;28;20508;-64
2022/03/29 10:15:45;;;;;;;8.23;4.95;;;;;;;20.86;26.51;96265.47;5113755;28;20027;-64
2022/03/29 10:18:11;;;;;;;7.40;4.63;;;;;;;20.93;25.60;96264.88;5114395;28;20080;-64
2022/03/29 10:20:39;;;;;;;8.75;5.68;;;;;;;21.07;27.58;96268.97;5114324;28;20035;-64
2022/03/29 10:23:06;;;;;;;7.60;4.97;;;;;;;21.29;25.88;96266.31;5114396;28;20050;-65
2022/03/29 10:25:33;;;;;;;9.38;4.55;;;;;;;21.37;26.02;96260.34;5114293;28;20019;-64
2022/03/29 10:28:01;;;;;;;9.00;4.45;;;;;;;21.21;26.02;96253.66;5114250;28;20019;-64
2022/03/29 10:30:39;;;;;;;6.32;4.47;;;;;;;21.34;25.10;96248.13;5114213;28;20012;-64
2022/03/29 10:33:24;;;;;;;13.07;4.88;;;;;;;21.29;25.99;96250.34;5114235;28;20093;-64
2022/03/29 10:36:00;;;;;;;16.58;4.72;;;;;;;21.40;25.95;96246.78;5114197;28;20031;-64
2022/03/29 10:38:56;;;;;;;8.05;4.10;;;;;;;21.48;25.65;96233.63;5114102;28;20036;-65
2022/03/29 10:41:33;;;;;;;5.70;3.92;;;;;;;21.69;25.23;96230.06;5104519;28;20527;-65
2022/03/29 10:44:06;;;;;;;10.77;3.97;;;;;;;21.62;24.76;96223.59;5114065;28;20032;-65
2022/03/29 10:46:41;;;;;;;11.05;4.65;;;;;;;21.64;23.97;96216.31;5113900;28;20058;-65
2022/03/29 10:49:25;;;;;;;35.67;17.58;;;;;;;21.49;23.66;96214.03;5113816;28;20020;-64
2022/03/29 10:52:31;;;;;;;20.02;5.68;;;;;;;21.40;24.80;96213.00;5113872;28;20032;-65
2022/03/29 10:55:27;;;;;;;12.48;4.57;;;;;;;21.38;24.85;96204.34;5084376;28;20039;-64
2022/03/29 10:58:08;;;;;;;12.05;4.35;;;;;;;21.41;26.91;96201.41;5113778;28;20118;-65
2022/03/29 11:00:37;;;;;;;11.00;4.90;;;;;;;21.44;26.15;96192.31;5113662;28;20504;-64
2022/03/29 11:03:10;;;;;;;13.52;4.43;;;;;;;21.31;25.58;96196.03;5113640;28;20035;-64
2022/03/29 11:06:03;;;;;;;17.73;5.03;;;;;;;21.59;25.75;96184.81;5113592;28;20031;-64
2022/03/29 11:08:30;;;;;;;11.75;4.40;;;;;;;21.54;24.31;96165.72;5113654;28;20389;-64
2022/03/29 11:10:58;;;;;;;9.27;4.55;;;;;;;21.40;24.55;96182.94;5113646;28;20026;-64
2022/03/29 11:13:28;;;;;;;14.18;5.13;;;;;;;21.40;25.04;96181.09;5113511;28;20024;-65
2022/03/29 11:15:57;;;;;;;18.98;4.82;;;;;;;21.33;25.76;96167.50;5113529;28;20039;-64
2022/03/29 11:18:32;;;;;;;17.33;4.90;;;;;;;21.45;26.54;96167.38;5112372;28;20378;-64
2022/03/29 11:21:02;;;;;;;12.73;3.75;;;;;;;21.55;25.00;96162.94;5113417;28;20027;-64
2022/03/29 11:23:46;;;;;;;18.48;4.63;;;;;;;21.72;26.07;96171.22;5113552;28;20031;-64
2022/03/29 11:26:15;;;;;;;15.48;4.43;;;;;;;21.32;24.57;96160.50;5115601;28;20020;-64
2022/03/29 11:28:52;;;;;;;17.67;5.32;;;;;;;21.04;24.63;96154.09;5117643;28;20469;-64
2022/03/29 11:31:20;;;;;;;20.90;5.80;;;;;;;20.63;24.91;96160.16;5117704;28;20027;-64
2022/03/29 11:33:52;;;;;;;23.88;5.60;;;;;;;20.66;25.53;96153.75;5117681;28;20012;-64
2022/03/29 11:36:19;;;;;;;24.83;5.82;;;;;;;20.84;25.14;96149.47;5117571;28;20023;-64
2022/03/29 11:38:45;;;;;;;20.17;4.80;;;;;;;20.89;26.46;96150.94;5117541;28;20024;-64
2022/03/29 11:41:25;;;;;;;21.05;5.18;;;;;;;20.82;24.91;96148.78;5117045;28;20039;-64
2022/03/29 11:43:54;;;;;;;18.58;5.60;;;;;;;20.70;24.39;96144.53;5117519;28;20023;-64